sensor_id;sensor_type;location;lat;lon;timestamp;P1;durP1;ratioP1;P2;durP2;ratioP2
4057;SDS011;2044;48.692;9.020;2023-03-19T00:01:27;7.87;;;5.80;;
4057;SDS011;2044;48.692;9.020;2023-03-19T00:03:54;9.83;;;5.33;;
4057;SDS011;2044;48.692;9.020;2023-03-19T00:06:20;8.77;;;5.90;;
4057;SDS011;2044;48.692;9.020;2023-03-19T00:08:49;9.00;;;5.57;;
4057;SDS011;2044;48.692;9.020;2023-03-19T00:11:15;7.10;;;6.10;;
4057;SDS011;2044;48.692;9.020;2023-03-19T00:13:42;7.07;;;5.57;;
4057;SDS011;2044;48.692;9.020;2023-03-19T00:16:09;9.40;;;6.87;;
4057;SDS011;2044;48.692;9.020;2023-03-19T00:18:36;9.20;;;5.37;;
4057;SDS011;2044;48.692;9.020;2023-03-19T00:21:02;7.03;;;6.13;;
4057;SDS011;2044;48.692;9.020;2023-03-19T00:23:29;10.97;;;6.40;;
4057;SDS011;2044;48.692;9.020;2023-03-19T00:25:57;9.37;;;7.20;;
4057;SDS011;2044;48.692;9.020;2023-03-19T00:28:24;10.63;;;6.40;;
4057;SDS011;2044;48.692;9.020;2023-03-19T00:30:52;8.30;;;5.90;;
4057;SDS011;2044;48.692;9.020;2023-03-19T00:33:19;9.47;;;6.30;;
4057;SDS011;2044;48.692;9.020;2023-03-19T00:35:46;11.40;;;6.23;;
4057;SDS011;2044;48.692;9.020;2023-03-19T00:38:13;13.47;;;6.97;;
4057;SDS011;2044;48.692;9.020;2023-03-19T00:40:40;8.67;;;6.30;;
4057;SDS011;2044;48.692;9.020;2023-03-19T00:43:08;8.00;;;6.10;;
4057;SDS011;2044;48.692;9.020;2023-03-19T00:45:34;8.60;;;6.23;;
4057;SDS011;2044;48.692;9.020;2023-03-19T00:48:01;6.70;;;5.87;;
4057;SDS011;2044;48.692;9.020;2023-03-19T00:50:28;8.50;;;5.80;;
4057;SDS011;2044;48.692;9.020;2023-03-19T00:52:54;10.30;;;5.60;;
4057;SDS011;2044;48.692;9.020;2023-03-19T00:55:21;10.47;;;5.60;;
4057;SDS011;2044;48.692;9.020;2023-03-19T00:57:49;5.93;;;4.93;;
4057;SDS011;2044;48.692;9.020;2023-03-19T01:00:18;10.70;;;5.90;;
4057;SDS011;2044;48.692;9.020;2023-03-19T01:02:45;7.90;;;5.73;;
4057;SDS011;2044;48.692;9.020;2023-03-19T01:05:12;7.87;;;5.93;;
4057;SDS011;2044;48.692;9.020;2023-03-19T01:07:38;9.00;;;6.60;;
4057;SDS011;2044;48.692;9.020;2023-03-19T01:10:05;9.67;;;6.47;;
4057;SDS011;2044;48.692;9.020;2023-03-19T01:12:33;9.87;;;6.17;;
4057;SDS011;2044;48.692;9.020;2023-03-19T01:15:00;12.60;;;6.70;;
4057;SDS011;2044;48.692;9.020;2023-03-19T01:17:32;13.50;;;6.73;;
4057;SDS011;2044;48.692;9.020;2023-03-19T01:19:59;8.10;;;6.13;;
4057;SDS011;2044;48.692;9.020;2023-03-19T01:22:25;8.40;;;5.50;;
4057;SDS011;2044;48.692;9.020;2023-03-19T01:24:52;6.83;;;5.60;;
4057;SDS011;2044;48.692;9.020;2023-03-19T01:27:19;6.80;;;5.73;;
4057;SDS011;2044;48.692;9.020;2023-03-19T01:29:46;9.20;;;4.73;;
4057;SDS011;2044;48.692;9.020;2023-03-19T01:32:13;5.53;;;4.50;;
4057;SDS011;2044;48.692;9.020;2023-03-19T01:34:41;5.10;;;4.70;;
4057;SDS011;2044;48.692;9.020;2023-03-19T01:37:08;7.03;;;4.87;;
4057;SDS011;2044;48.692;9.020;2023-03-19T01:39:35;4.80;;;4.40;;
4057;SDS011;2044;48.692;9.020;2023-03-19T01:42:02;5.07;;;4.57;;
4057;SDS011;2044;48.692;9.020;2023-03-19T01:44:30;12.00;;;5.20;;
4057;SDS011;2044;48.692;9.020;2023-03-19T01:46:59;4.50;;;3.67;;
4057;SDS011;2044;48.692;9.020;2023-03-19T01:49:28;4.27;;;3.87;;
4057;SDS011;2044;48.692;9.020;2023-03-19T01:51:56;5.20;;;4.10;;
4057;SDS011;2044;48.692;9.020;2023-03-19T01:54:27;7.07;;;4.37;;
4057;SDS011;2044;48.692;9.020;2023-03-19T01:56:57;6.93;;;4.63;;
4057;SDS011;2044;48.692;9.020;2023-03-19T01:59:29;5.60;;;4.27;;
4057;SDS011;2044;48.692;9.020;2023-03-19T02:01:58;5.33;;;4.30;;
4057;SDS011;2044;48.692;9.020;2023-03-19T02:04:28;7.50;;;4.40;;
4057;SDS011;2044;48.692;9.020;2023-03-19T02:06:59;7.57;;;5.40;;
4057;SDS011;2044;48.692;9.020;2023-03-19T02:09:27;7.90;;;6.07;;
4057;SDS011;2044;48.692;9.020;2023-03-19T02:11:55;6.37;;;5.07;;
4057;SDS011;2044;48.692;9.020;2023-03-19T02:14:22;8.90;;;6.00;;
4057;SDS011;2044;48.692;9.020;2023-03-19T02:16:49;8.77;;;6.17;;
4057;SDS011;2044;48.692;9.020;2023-03-19T02:19:17;9.97;;;7.30;;
4057;SDS011;2044;48.692;9.020;2023-03-19T02:21:48;10.47;;;7.73;;
4057;SDS011;2044;48.692;9.020;2023-03-19T02:24:18;11.60;;;8.07;;
4057;SDS011;2044;48.692;9.020;2023-03-19T02:26:49;11.50;;;7.17;;
4057;SDS011;2044;48.692;9.020;2023-03-19T02:29:16;11.20;;;7.17;;
4057;SDS011;2044;48.692;9.020;2023-03-19T02:31:43;8.93;;;6.77;;
4057;SDS011;2044;48.692;9.020;2023-03-19T02:36:59;11.37;;;6.40;;
4057;SDS011;2044;48.692;9.020;2023-03-19T02:39:29;11.07;;;7.47;;
4057;SDS011;2044;48.692;9.020;2023-03-19T02:42:01;11.20;;;7.23;;
4057;SDS011;2044;48.692;9.020;2023-03-19T02:44:29;10.87;;;7.60;;
4057;SDS011;2044;48.692;9.020;2023-03-19T02:46:56;12.03;;;8.30;;
4057;SDS011;2044;48.692;9.020;2023-03-19T02:49:23;18.30;;;9.80;;
4057;SDS011;2044;48.692;9.020;2023-03-19T02:51:50;17.53;;;8.70;;
4057;SDS011;2044;48.692;9.020;2023-03-19T02:54:16;13.80;;;7.80;;
4057;SDS011;2044;48.692;9.020;2023-03-19T02:56:43;13.17;;;8.23;;
4057;SDS011;2044;48.692;9.020;2023-03-19T02:59:11;9.57;;;6.40;;
4057;SDS011;2044;48.692;9.020;2023-03-19T03:01:38;9.00;;;7.17;;
4057;SDS011;2044;48.692;9.020;2023-03-19T03:04:05;12.93;;;8.50;;
4057;SDS011;2044;48.692;9.020;2023-03-19T03:06:32;20.43;;;8.00;;
4057;SDS011;2044;48.692;9.020;2023-03-19T03:08:59;14.53;;;8.60;;
4057;SDS011;2044;48.692;9.020;2023-03-19T03:11:26;10.40;;;7.67;;
4057;SDS011;2044;48.692;9.020;2023-03-19T03:13:52;10.83;;;7.53;;
4057;SDS011;2044;48.692;9.020;2023-03-19T03:16:20;10.60;;;7.70;;
4057;SDS011;2044;48.692;9.020;2023-03-19T03:18:48;11.40;;;7.50;;
4057;SDS011;2044;48.692;9.020;2023-03-19T03:21:15;13.97;;;8.60;;
4057;SDS011;2044;48.692;9.020;2023-03-19T03:23:44;12.97;;;7.93;;
4057;SDS011;2044;48.692;9.020;2023-03-19T03:26:11;14.13;;;7.77;;
4057;SDS011;2044;48.692;9.020;2023-03-19T03:28:38;12.30;;;8.07;;
4057;SDS011;2044;48.692;9.020;2023-03-19T03:31:05;14.37;;;8.50;;
4057;SDS011;2044;48.692;9.020;2023-03-19T03:33:34;15.97;;;8.40;;
4057;SDS011;2044;48.692;9.020;2023-03-19T03:36:01;13.03;;;7.83;;
4057;SDS011;2044;48.692;9.020;2023-03-19T03:38:28;11.70;;;7.67;;
4057;SDS011;2044;48.692;9.020;2023-03-19T03:40:56;13.43;;;7.70;;
4057;SDS011;2044;48.692;9.020;2023-03-19T03:43:23;11.00;;;7.70;;
4057;SDS011;2044;48.692;9.020;2023-03-19T03:45:50;11.40;;;7.87;;
4057;SDS011;2044;48.692;9.020;2023-03-19T03:48:17;9.70;;;7.20;;
4057;SDS011;2044;48.692;9.020;2023-03-19T03:50:45;11.07;;;7.50;;
4057;SDS011;2044;48.692;9.020;2023-03-19T03:53:12;10.70;;;7.90;;
4057;SDS011;2044;48.692;9.020;2023-03-19T03:55:39;13.60;;;7.97;;
4057;SDS011;2044;48.692;9.020;2023-03-19T03:58:06;8.33;;;6.70;;
4057;SDS011;2044;48.692;9.020;2023-03-19T04:00:33;12.17;;;7.50;;
4057;SDS011;2044;48.692;9.020;2023-03-19T04:03:00;9.67;;;6.43;;
4057;SDS011;2044;48.692;9.020;2023-03-19T04:05:27;10.43;;;7.13;;
4057;SDS011;2044;48.692;9.020;2023-03-19T04:07:55;11.67;;;6.90;;
4057;SDS011;2044;48.692;9.020;2023-03-19T04:10:22;7.90;;;6.17;;
4057;SDS011;2044;48.692;9.020;2023-03-19T04:12:49;9.07;;;6.23;;
4057;SDS011;2044;48.692;9.020;2023-03-19T04:15:16;8.03;;;5.07;;
4057;SDS011;2044;48.692;9.020;2023-03-19T04:17:43;10.40;;;6.47;;
4057;SDS011;2044;48.692;9.020;2023-03-19T04:20:10;8.37;;;5.80;;
4057;SDS011;2044;48.692;9.020;2023-03-19T04:22:38;6.00;;;4.87;;
4057;SDS011;2044;48.692;9.020;2023-03-19T04:25:07;8.33;;;5.67;;
4057;SDS011;2044;48.692;9.020;2023-03-19T04:27:34;7.30;;;5.10;;
4057;SDS011;2044;48.692;9.020;2023-03-19T04:30:01;8.80;;;5.37;;
4057;SDS011;2044;48.692;9.020;2023-03-19T04:32:28;10.37;;;5.57;;
4057;SDS011;2044;48.692;9.020;2023-03-19T04:34:55;7.40;;;5.47;;
4057;SDS011;2044;48.692;9.020;2023-03-19T04:37:22;6.30;;;5.10;;
4057;SDS011;2044;48.692;9.020;2023-03-19T04:39:49;7.80;;;5.90;;
4057;SDS011;2044;48.692;9.020;2023-03-19T04:42:18;7.20;;;5.10;;
4057;SDS011;2044;48.692;9.020;2023-03-19T04:44:44;7.97;;;5.80;;
4057;SDS011;2044;48.692;9.020;2023-03-19T04:47:11;7.60;;;5.20;;
4057;SDS011;2044;48.692;9.020;2023-03-19T04:49:38;5.60;;;4.33;;
4057;SDS011;2044;48.692;9.020;2023-03-19T04:52:05;6.50;;;4.87;;
4057;SDS011;2044;48.692;9.020;2023-03-19T04:54:33;6.90;;;5.00;;
4057;SDS011;2044;48.692;9.020;2023-03-19T04:57:00;6.77;;;5.43;;
4057;SDS011;2044;48.692;9.020;2023-03-19T04:59:28;7.87;;;5.37;;
4057;SDS011;2044;48.692;9.020;2023-03-19T05:01:55;8.87;;;5.23;;
4057;SDS011;2044;48.692;9.020;2023-03-19T05:04:22;7.40;;;5.40;;
4057;SDS011;2044;48.692;9.020;2023-03-19T05:06:49;8.87;;;5.40;;
4057;SDS011;2044;48.692;9.020;2023-03-19T05:09:15;7.83;;;4.70;;
4057;SDS011;2044;48.692;9.020;2023-03-19T05:11:42;5.67;;;4.63;;
4057;SDS011;2044;48.692;9.020;2023-03-19T05:14:09;5.73;;;4.53;;
4057;SDS011;2044;48.692;9.020;2023-03-19T05:16:37;6.23;;;4.60;;
4057;SDS011;2044;48.692;9.020;2023-03-19T05:19:03;7.13;;;5.00;;
4057;SDS011;2044;48.692;9.020;2023-03-19T05:21:30;7.10;;;5.30;;
4057;SDS011;2044;48.692;9.020;2023-03-19T05:23:57;5.10;;;4.10;;
4057;SDS011;2044;48.692;9.020;2023-03-19T05:26:24;7.57;;;4.20;;
4057;SDS011;2044;48.692;9.020;2023-03-19T05:28:50;4.70;;;3.90;;
4057;SDS011;2044;48.692;9.020;2023-03-19T05:31:17;6.30;;;4.30;;
4057;SDS011;2044;48.692;9.020;2023-03-19T05:33:45;6.80;;;4.10;;
4057;SDS011;2044;48.692;9.020;2023-03-19T05:36:12;5.97;;;4.40;;
4057;SDS011;2044;48.692;9.020;2023-03-19T05:38:39;5.93;;;4.63;;
4057;SDS011;2044;48.692;9.020;2023-03-19T05:41:06;5.57;;;3.50;;
4057;SDS011;2044;48.692;9.020;2023-03-19T05:43:33;5.00;;;3.90;;
4057;SDS011;2044;48.692;9.020;2023-03-19T05:45:59;5.77;;;3.80;;
4057;SDS011;2044;48.692;9.020;2023-03-19T05:48:27;4.87;;;3.70;;
4057;SDS011;2044;48.692;9.020;2023-03-19T05:50:55;4.47;;;4.07;;
4057;SDS011;2044;48.692;9.020;2023-03-19T05:53:23;5.10;;;3.90;;
4057;SDS011;2044;48.692;9.020;2023-03-19T05:55:50;6.10;;;4.67;;
4057;SDS011;2044;48.692;9.020;2023-03-19T05:58:16;7.13;;;4.60;;
4057;SDS011;2044;48.692;9.020;2023-03-19T06:00:43;7.30;;;4.07;;
4057;SDS011;2044;48.692;9.020;2023-03-19T06:03:10;5.80;;;4.23;;
4057;SDS011;2044;48.692;9.020;2023-03-19T06:05:36;7.63;;;3.63;;
4057;SDS011;2044;48.692;9.020;2023-03-19T06:08:05;4.23;;;3.83;;
4057;SDS011;2044;48.692;9.020;2023-03-19T06:10:32;4.80;;;3.67;;
4057;SDS011;2044;48.692;9.020;2023-03-19T06:12:59;5.40;;;4.20;;
4057;SDS011;2044;48.692;9.020;2023-03-19T06:15:26;11.07;;;5.00;;
4057;SDS011;2044;48.692;9.020;2023-03-19T06:17:52;8.10;;;4.57;;
4057;SDS011;2044;48.692;9.020;2023-03-19T06:20:19;6.07;;;4.60;;
4057;SDS011;2044;48.692;9.020;2023-03-19T06:22:46;5.83;;;4.27;;
4057;SDS011;2044;48.692;9.020;2023-03-19T06:25:14;4.90;;;4.30;;
4057;SDS011;2044;48.692;9.020;2023-03-19T06:27:41;4.33;;;3.93;;
4057;SDS011;2044;48.692;9.020;2023-03-19T06:30:08;5.60;;;4.40;;
4057;SDS011;2044;48.692;9.020;2023-03-19T06:32:35;6.63;;;4.43;;
4057;SDS011;2044;48.692;9.020;2023-03-19T06:35:02;5.43;;;4.33;;
4057;SDS011;2044;48.692;9.020;2023-03-19T06:37:30;8.10;;;4.27;;
4057;SDS011;2044;48.692;9.020;2023-03-19T06:39:57;4.80;;;4.27;;
4057;SDS011;2044;48.692;9.020;2023-03-19T06:42:25;6.63;;;4.10;;
4057;SDS011;2044;48.692;9.020;2023-03-19T06:44:51;3.20;;;2.90;;
4057;SDS011;2044;48.692;9.020;2023-03-19T06:47:18;4.60;;;3.43;;
4057;SDS011;2044;48.692;9.020;2023-03-19T06:49:45;4.03;;;3.10;;
4057;SDS011;2044;48.692;9.020;2023-03-19T06:52:11;3.57;;;3.10;;
4057;SDS011;2044;48.692;9.020;2023-03-19T06:54:38;4.10;;;2.73;;
4057;SDS011;2044;48.692;9.020;2023-03-19T06:57:05;3.10;;;2.77;;
4057;SDS011;2044;48.692;9.020;2023-03-19T06:59:33;5.17;;;3.20;;
4057;SDS011;2044;48.692;9.020;2023-03-19T07:02:00;3.40;;;2.90;;
4057;SDS011;2044;48.692;9.020;2023-03-19T07:04:27;3.60;;;2.67;;
4057;SDS011;2044;48.692;9.020;2023-03-19T07:06:54;3.00;;;2.63;;
4057;SDS011;2044;48.692;9.020;2023-03-19T07:09:20;4.10;;;2.90;;
4057;SDS011;2044;48.692;9.020;2023-03-19T07:11:47;3.23;;;2.90;;
4057;SDS011;2044;48.692;9.020;2023-03-19T07:14:14;4.87;;;2.63;;
4057;SDS011;2044;48.692;9.020;2023-03-19T07:16:42;4.20;;;2.77;;
4057;SDS011;2044;48.692;9.020;2023-03-19T07:19:09;5.43;;;2.47;;
4057;SDS011;2044;48.692;9.020;2023-03-19T07:21:36;3.53;;;2.60;;
4057;SDS011;2044;48.692;9.020;2023-03-19T07:24:03;4.47;;;3.03;;
4057;SDS011;2044;48.692;9.020;2023-03-19T07:26:30;3.77;;;2.77;;
4057;SDS011;2044;48.692;9.020;2023-03-19T07:28:57;2.50;;;2.30;;
4057;SDS011;2044;48.692;9.020;2023-03-19T07:31:24;3.80;;;2.70;;
4057;SDS011;2044;48.692;9.020;2023-03-19T07:33:52;3.93;;;2.67;;
4057;SDS011;2044;48.692;9.020;2023-03-19T07:36:19;3.03;;;2.73;;
4057;SDS011;2044;48.692;9.020;2023-03-19T07:38:46;5.40;;;3.00;;
4057;SDS011;2044;48.692;9.020;2023-03-19T07:41:13;3.60;;;2.60;;
4057;SDS011;2044;48.692;9.020;2023-03-19T07:43:40;5.10;;;2.97;;
4057;SDS011;2044;48.692;9.020;2023-03-19T07:46:06;4.40;;;2.23;;
4057;SDS011;2044;48.692;9.020;2023-03-19T07:48:33;3.23;;;2.93;;
4057;SDS011;2044;48.692;9.020;2023-03-19T07:51:01;2.80;;;2.60;;
4057;SDS011;2044;48.692;9.020;2023-03-19T07:53:28;3.03;;;2.73;;
4057;SDS011;2044;48.692;9.020;2023-03-19T07:55:55;9.57;;;3.67;;
4057;SDS011;2044;48.692;9.020;2023-03-19T07:58:21;2.60;;;2.40;;
4057;SDS011;2044;48.692;9.020;2023-03-19T08:00:48;3.07;;;2.77;;
4057;SDS011;2044;48.692;9.020;2023-03-19T08:03:15;3.23;;;2.77;;
4057;SDS011;2044;48.692;9.020;2023-03-19T08:05:41;3.10;;;2.80;;
4057;SDS011;2044;48.692;9.020;2023-03-19T08:08:09;3.10;;;2.90;;
4057;SDS011;2044;48.692;9.020;2023-03-19T08:10:37;3.47;;;3.17;;
4057;SDS011;2044;48.692;9.020;2023-03-19T08:13:03;4.30;;;3.30;;
4057;SDS011;2044;48.692;9.020;2023-03-19T08:15:30;3.67;;;3.10;;
4057;SDS011;2044;48.692;9.020;2023-03-19T08:17:57;3.60;;;3.30;;
4057;SDS011;2044;48.692;9.020;2023-03-19T08:20:25;3.47;;;3.20;;
4057;SDS011;2044;48.692;9.020;2023-03-19T08:22:52;3.30;;;3.10;;
4057;SDS011;2044;48.692;9.020;2023-03-19T08:25:20;3.80;;;3.40;;
4057;SDS011;2044;48.692;9.020;2023-03-19T08:27:47;3.47;;;3.17;;
4057;SDS011;2044;48.692;9.020;2023-03-19T08:30:13;4.10;;;3.80;;
4057;SDS011;2044;48.692;9.020;2023-03-19T08:32:40;4.03;;;3.60;;
4057;SDS011;2044;48.692;9.020;2023-03-19T08:35:09;5.27;;;3.80;;
4057;SDS011;2044;48.692;9.020;2023-03-19T08:37:36;4.20;;;3.80;;
4057;SDS011;2044;48.692;9.020;2023-03-19T08:40:03;4.30;;;3.90;;
4057;SDS011;2044;48.692;9.020;2023-03-19T08:42:34;4.37;;;4.07;;
4057;SDS011;2044;48.692;9.020;2023-03-19T08:45:03;4.47;;;4.27;;
4057;SDS011;2044;48.692;9.020;2023-03-19T08:47:30;5.33;;;5.03;;
4057;SDS011;2044;48.692;9.020;2023-03-19T08:49:56;5.47;;;5.00;;
4057;SDS011;2044;48.692;9.020;2023-03-19T08:52:23;4.73;;;4.33;;
4057;SDS011;2044;48.692;9.020;2023-03-19T08:54:50;4.80;;;4.40;;
4057;SDS011;2044;48.692;9.020;2023-03-19T08:57:17;5.00;;;4.70;;
4057;SDS011;2044;48.692;9.020;2023-03-19T08:59:45;5.30;;;5.00;;
4057;SDS011;2044;48.692;9.020;2023-03-19T09:02:12;5.33;;;4.93;;
4057;SDS011;2044;48.692;9.020;2023-03-19T09:04:39;5.50;;;5.10;;
4057;SDS011;2044;48.692;9.020;2023-03-19T09:07:06;7.43;;;6.10;;
4057;SDS011;2044;48.692;9.020;2023-03-19T09:09:37;6.07;;;5.67;;
4057;SDS011;2044;48.692;9.020;2023-03-19T09:12:04;5.90;;;5.50;;
4057;SDS011;2044;48.692;9.020;2023-03-19T09:14:32;6.07;;;5.57;;
4057;SDS011;2044;48.692;9.020;2023-03-19T09:17:00;5.90;;;5.60;;
4057;SDS011;2044;48.692;9.020;2023-03-19T09:19:26;5.80;;;5.50;;
4057;SDS011;2044;48.692;9.020;2023-03-19T09:21:53;6.17;;;5.80;;
4057;SDS011;2044;48.692;9.020;2023-03-19T09:24:20;6.20;;;5.90;;
4057;SDS011;2044;48.692;9.020;2023-03-19T09:26:47;6.10;;;5.80;;
4057;SDS011;2044;48.692;9.020;2023-03-19T09:29:14;6.27;;;5.87;;
4057;SDS011;2044;48.692;9.020;2023-03-19T09:31:41;6.40;;;6.00;;
4057;SDS011;2044;48.692;9.020;2023-03-19T09:34:09;6.57;;;6.27;;
4057;SDS011;2044;48.692;9.020;2023-03-19T09:36:38;6.50;;;6.20;;
4057;SDS011;2044;48.692;9.020;2023-03-19T09:39:05;7.83;;;7.43;;
4057;SDS011;2044;48.692;9.020;2023-03-19T09:41:34;7.80;;;7.50;;
4057;SDS011;2044;48.692;9.020;2023-03-19T09:44:07;8.50;;;8.10;;
4057;SDS011;2044;48.692;9.020;2023-03-19T09:46:39;8.70;;;8.30;;
4057;SDS011;2044;48.692;9.020;2023-03-19T09:49:13;8.57;;;8.17;;
4057;SDS011;2044;48.692;9.020;2023-03-19T09:51:47;8.87;;;8.30;;
4057;SDS011;2044;48.692;9.020;2023-03-19T09:54:20;8.40;;;7.90;;
4057;SDS011;2044;48.692;9.020;2023-03-19T09:56:51;9.33;;;8.80;;
4057;SDS011;2044;48.692;9.020;2023-03-19T09:59:19;9.33;;;8.47;;
4057;SDS011;2044;48.692;9.020;2023-03-19T10:01:49;8.37;;;7.97;;
4057;SDS011;2044;48.692;9.020;2023-03-19T10:07:13;9.17;;;8.37;;
4057;SDS011;2044;48.692;9.020;2023-03-19T10:09:53;8.67;;;8.27;;
4057;SDS011;2044;48.692;9.020;2023-03-19T10:12:35;9.47;;;8.77;;
4057;SDS011;2044;48.692;9.020;2023-03-19T10:15:12;9.10;;;8.47;;
4057;SDS011;2044;48.692;9.020;2023-03-19T10:17:45;9.20;;;8.70;;
4057;SDS011;2044;48.692;9.020;2023-03-19T10:20:16;9.50;;;8.90;;
4057;SDS011;2044;48.692;9.020;2023-03-19T10:22:50;8.70;;;8.20;;
4057;SDS011;2044;48.692;9.020;2023-03-19T10:25:25;8.60;;;8.17;;
4057;SDS011;2044;48.692;9.020;2023-03-19T10:27:54;9.63;;;9.03;;
4057;SDS011;2044;48.692;9.020;2023-03-19T10:30:25;9.30;;;8.80;;
4057;SDS011;2044;48.692;9.020;2023-03-19T10:32:58;9.00;;;8.50;;
4057;SDS011;2044;48.692;9.020;2023-03-19T10:35:40;9.10;;;8.50;;
4057;SDS011;2044;48.692;9.020;2023-03-19T10:38:15;9.30;;;8.80;;
4057;SDS011;2044;48.692;9.020;2023-03-19T10:40:47;9.53;;;9.03;;
4057;SDS011;2044;48.692;9.020;2023-03-19T10:43:23;8.77;;;8.37;;
4057;SDS011;2044;48.692;9.020;2023-03-19T10:45:52;9.87;;;9.27;;
4057;SDS011;2044;48.692;9.020;2023-03-19T10:48:18;9.20;;;8.70;;
4057;SDS011;2044;48.692;9.020;2023-03-19T10:50:52;9.60;;;9.10;;
4057;SDS011;2044;48.692;9.020;2023-03-19T10:53:32;9.50;;;8.90;;
4057;SDS011;2044;48.692;9.020;2023-03-19T10:56:01;9.97;;;9.13;;
4057;SDS011;2044;48.692;9.020;2023-03-19T10:58:29;9.47;;;9.07;;
4057;SDS011;2044;48.692;9.020;2023-03-19T11:01:02;9.20;;;8.60;;
4057;SDS011;2044;48.692;9.020;2023-03-19T11:03:32;9.40;;;9.00;;
4057;SDS011;2044;48.692;9.020;2023-03-19T11:06:04;10.60;;;9.80;;
4057;SDS011;2044;48.692;9.020;2023-03-19T11:08:35;9.77;;;9.30;;
4057;SDS011;2044;48.692;9.020;2023-03-19T11:11:03;9.97;;;9.47;;
4057;SDS011;2044;48.692;9.020;2023-03-19T11:13:32;9.63;;;9.23;;
4057;SDS011;2044;48.692;9.020;2023-03-19T11:16:00;9.43;;;8.90;;
4057;SDS011;2044;48.692;9.020;2023-03-19T11:18:34;9.40;;;9.00;;
4057;SDS011;2044;48.692;9.020;2023-03-19T11:21:06;9.60;;;9.20;;
4057;SDS011;2044;48.692;9.020;2023-03-19T11:23:46;10.50;;;9.90;;
4057;SDS011;2044;48.692;9.020;2023-03-19T11:26:18;9.60;;;9.20;;
4057;SDS011;2044;48.692;9.020;2023-03-19T11:28:45;10.03;;;9.43;;
4057;SDS011;2044;48.692;9.020;2023-03-19T11:31:19;9.60;;;9.10;;
4057;SDS011;2044;48.692;9.020;2023-03-19T11:33:56;10.20;;;9.70;;
4057;SDS011;2044;48.692;9.020;2023-03-19T11:36:36;10.07;;;9.40;;
4057;SDS011;2044;48.692;9.020;2023-03-19T11:39:13;10.17;;;9.57;;
4057;SDS011;2044;48.692;9.020;2023-03-19T11:41:48;9.97;;;9.47;;
4057;SDS011;2044;48.692;9.020;2023-03-19T11:44:30;9.70;;;9.20;;
4057;SDS011;2044;48.692;9.020;2023-03-19T11:47:03;10.27;;;9.70;;
4057;SDS011;2044;48.692;9.020;2023-03-19T11:49:48;9.60;;;9.10;;
4057;SDS011;2044;48.692;9.020;2023-03-19T11:52:27;9.67;;;9.20;;
4057;SDS011;2044;48.692;9.020;2023-03-19T11:55:02;9.60;;;9.10;;
4057;SDS011;2044;48.692;9.020;2023-03-19T11:57:45;9.90;;;9.40;;
4057;SDS011;2044;48.692;9.020;2023-03-19T12:00:24;9.80;;;9.30;;
4057;SDS011;2044;48.692;9.020;2023-03-19T12:03:07;9.60;;;9.00;;
4057;SDS011;2044;48.692;9.020;2023-03-19T12:06:02;10.20;;;9.60;;
4057;SDS011;2044;48.692;9.020;2023-03-19T12:08:41;10.23;;;9.63;;
4057;SDS011;2044;48.692;9.020;2023-03-19T12:11:15;10.17;;;9.63;;
4057;SDS011;2044;48.692;9.020;2023-03-19T12:13:52;10.03;;;9.50;;
4057;SDS011;2044;48.692;9.020;2023-03-19T12:16:35;9.50;;;9.13;;
4057;SDS011;2044;48.692;9.020;2023-03-19T12:19:20;10.00;;;9.40;;
4057;SDS011;2044;48.692;9.020;2023-03-19T12:21:58;10.00;;;9.60;;
4057;SDS011;2044;48.692;9.020;2023-03-19T12:24:36;10.40;;;9.80;;
4057;SDS011;2044;48.692;9.020;2023-03-19T12:27:21;10.10;;;9.50;;
4057;SDS011;2044;48.692;9.020;2023-03-19T12:29:59;9.47;;;9.07;;
4057;SDS011;2044;48.692;9.020;2023-03-19T12:32:40;9.67;;;9.17;;
4057;SDS011;2044;48.692;9.020;2023-03-19T12:35:20;8.80;;;8.40;;
4057;SDS011;2044;48.692;9.020;2023-03-19T12:37:55;10.10;;;9.20;;
4057;SDS011;2044;48.692;9.020;2023-03-19T12:40:27;9.43;;;9.00;;
4057;SDS011;2044;48.692;9.020;2023-03-19T12:43:01;9.10;;;8.60;;
4057;SDS011;2044;48.692;9.020;2023-03-19T12:45:33;9.40;;;8.90;;
4057;SDS011;2044;48.692;9.020;2023-03-19T12:48:05;9.40;;;9.00;;
4057;SDS011;2044;48.692;9.020;2023-03-19T12:50:36;9.10;;;8.70;;
4057;SDS011;2044;48.692;9.020;2023-03-19T12:53:06;9.20;;;8.70;;
4057;SDS011;2044;48.692;9.020;2023-03-19T12:55:41;8.33;;;7.93;;
4057;SDS011;2044;48.692;9.020;2023-03-19T12:58:15;8.50;;;8.00;;
4057;SDS011;2044;48.692;9.020;2023-03-19T13:00:47;8.77;;;8.37;;
4057;SDS011;2044;48.692;9.020;2023-03-19T13:03:21;9.80;;;9.00;;
4057;SDS011;2044;48.692;9.020;2023-03-19T13:05:54;9.70;;;9.00;;
4057;SDS011;2044;48.692;9.020;2023-03-19T13:08:28;8.83;;;8.43;;
4057;SDS011;2044;48.692;9.020;2023-03-19T13:11:00;9.60;;;8.90;;
4057;SDS011;2044;48.692;9.020;2023-03-19T13:13:35;9.90;;;9.20;;
4057;SDS011;2044;48.692;9.020;2023-03-19T13:16:09;9.83;;;9.13;;
4057;SDS011;2044;48.692;9.020;2023-03-19T13:18:48;9.57;;;8.97;;
4057;SDS011;2044;48.692;9.020;2023-03-19T13:21:23;9.23;;;8.70;;
4057;SDS011;2044;48.692;9.020;2023-03-19T13:23:58;9.00;;;8.50;;
4057;SDS011;2044;48.692;9.020;2023-03-19T13:26:30;8.67;;;8.17;;
4057;SDS011;2044;48.692;9.020;2023-03-19T13:28:59;9.57;;;9.00;;
4057;SDS011;2044;48.692;9.020;2023-03-19T13:31:28;10.00;;;9.40;;
4057;SDS011;2044;48.692;9.020;2023-03-19T13:33:59;10.60;;;10.00;;
4057;SDS011;2044;48.692;9.020;2023-03-19T13:36:28;10.00;;;9.47;;
4057;SDS011;2044;48.692;9.020;2023-03-19T13:38:57;9.93;;;9.30;;
4057;SDS011;2044;48.692;9.020;2023-03-19T13:44:23;10.50;;;9.90;;
4057;SDS011;2044;48.692;9.020;2023-03-19T13:46:59;9.73;;;9.20;;
4057;SDS011;2044;48.692;9.020;2023-03-19T13:49:30;9.83;;;9.33;;
4057;SDS011;2044;48.692;9.020;2023-03-19T13:55:22;9.70;;;9.20;;
4057;SDS011;2044;48.692;9.020;2023-03-19T13:58:04;9.83;;;9.30;;
4057;SDS011;2044;48.692;9.020;2023-03-19T14:01:01;9.70;;;9.20;;
4057;SDS011;2044;48.692;9.020;2023-03-19T14:03:30;9.30;;;8.90;;
4057;SDS011;2044;48.692;9.020;2023-03-19T14:05:58;9.30;;;8.87;;
4057;SDS011;2044;48.692;9.020;2023-03-19T14:08:26;10.50;;;9.90;;
4057;SDS011;2044;48.692;9.020;2023-03-19T14:10:56;9.20;;;8.80;;
4057;SDS011;2044;48.692;9.020;2023-03-19T14:13:28;9.87;;;9.30;;
4057;SDS011;2044;48.692;9.020;2023-03-19T14:16:00;9.87;;;9.27;;
4057;SDS011;2044;48.692;9.020;2023-03-19T14:18:31;9.53;;;9.03;;
4057;SDS011;2044;48.692;9.020;2023-03-19T14:20:59;9.50;;;9.00;;
4057;SDS011;2044;48.692;9.020;2023-03-19T14:23:29;9.27;;;8.87;;
4057;SDS011;2044;48.692;9.020;2023-03-19T14:26:00;10.60;;;9.60;;
4057;SDS011;2044;48.692;9.020;2023-03-19T14:28:37;10.13;;;9.43;;
4057;SDS011;2044;48.692;9.020;2023-03-19T14:31:25;8.70;;;8.30;;
4057;SDS011;2044;48.692;9.020;2023-03-19T14:33:58;8.67;;;8.27;;
4057;SDS011;2044;48.692;9.020;2023-03-19T14:36:29;8.27;;;7.87;;
4057;SDS011;2044;48.692;9.020;2023-03-19T14:38:57;8.10;;;7.60;;
4057;SDS011;2044;48.692;9.020;2023-03-19T14:41:27;8.80;;;8.30;;
4057;SDS011;2044;48.692;9.020;2023-03-19T14:44:07;8.97;;;8.57;;
4057;SDS011;2044;48.692;9.020;2023-03-19T14:47:03;9.07;;;8.47;;
4057;SDS011;2044;48.692;9.020;2023-03-19T14:49:46;9.00;;;8.40;;
4057;SDS011;2044;48.692;9.020;2023-03-19T14:52:29;9.23;;;8.50;;
4057;SDS011;2044;48.692;9.020;2023-03-19T14:54:58;8.20;;;7.80;;
4057;SDS011;2044;48.692;9.020;2023-03-19T14:57:27;8.63;;;8.13;;
4057;SDS011;2044;48.692;9.020;2023-03-19T14:59:56;7.93;;;7.40;;
4057;SDS011;2044;48.692;9.020;2023-03-19T15:02:26;8.10;;;7.60;;
4057;SDS011;2044;48.692;9.020;2023-03-19T15:04:59;8.43;;;7.93;;
4057;SDS011;2044;48.692;9.020;2023-03-19T15:07:28;9.77;;;8.20;;
4057;SDS011;2044;48.692;9.020;2023-03-19T15:09:58;7.73;;;7.40;;
4057;SDS011;2044;48.692;9.020;2023-03-19T15:12:34;7.77;;;7.37;;
4057;SDS011;2044;48.692;9.020;2023-03-19T15:15:23;8.13;;;7.57;;
4057;SDS011;2044;48.692;9.020;2023-03-19T15:17:58;7.87;;;7.37;;
4057;SDS011;2044;48.692;9.020;2023-03-19T15:20:28;7.57;;;7.07;;
4057;SDS011;2044;48.692;9.020;2023-03-19T15:22:58;7.50;;;7.00;;
4057;SDS011;2044;48.692;9.020;2023-03-19T15:25:27;7.10;;;6.60;;
4057;SDS011;2044;48.692;9.020;2023-03-19T15:28:05;6.83;;;6.43;;
4057;SDS011;2044;48.692;9.020;2023-03-19T15:30:36;6.70;;;6.30;;
4057;SDS011;2044;48.692;9.020;2023-03-19T15:33:03;6.50;;;5.90;;
4057;SDS011;2044;48.692;9.020;2023-03-19T15:35:41;4.83;;;4.53;;
4057;SDS011;2044;48.692;9.020;2023-03-19T15:38:09;4.73;;;4.30;;
4057;SDS011;2044;48.692;9.020;2023-03-19T15:40:40;4.40;;;4.03;;